createdAt,value
2023-02-01T00:02:43.731Z,100058.56
2023-02-01T00:05:19.225Z,100052.88
2023-02-01T00:07:52.467Z,100048.06
2023-02-01T00:10:22.610Z,100044.06
2023-02-01T00:12:52.745Z,100047.91
2023-02-01T00:15:20.603Z,100039.81
2023-02-01T00:17:47.352Z,100035.13
2023-02-01T00:20:20.420Z,100037.19
2023-02-01T00:22:55.992Z,100033.66
2023-02-01T00:25:22.899Z,100046.84
2023-02-01T00:27:52.643Z,100035.97
2023-02-01T00:30:37.366Z,100025.06
2023-02-01T00:33:04.232Z,100027.88
2023-02-01T00:36:00.441Z,100040.94
2023-02-01T00:38:46.187Z,100041.78
2023-02-01T00:41:25.273Z,100029.09
2023-02-01T00:43:53.712Z,100027.16
2023-02-01T00:46:53.331Z,100028.56
2023-02-01T00:49:23.098Z,100024.84
2023-02-01T00:51:56.460Z,100039.59
2023-02-01T00:54:26.422Z,100024.13
2023-02-01T00:56:55.421Z,99995.00
2023-02-01T00:59:24.739Z,100036.78
2023-02-01T01:01:51.534Z,100047.34
2023-02-01T01:04:18.475Z,100029.75
2023-02-01T01:06:45.237Z,100024.25
2023-02-01T01:09:18.122Z,100027.94
2023-02-01T01:11:58.126Z,100016.91
2023-02-01T01:14:27.370Z,100032.28
2023-02-01T01:16:54.266Z,100027.88
2023-02-01T01:19:26.823Z,100027.72
2023-02-01T01:21:56.161Z,100033.41
2023-02-01T01:24:25.299Z,100026.88
2023-02-01T01:27:01.149Z,100025.66
2023-02-01T01:29:27.960Z,100006.59
2023-02-01T01:31:54.758Z,100013.13
2023-02-01T01:34:50.504Z,100015.34
2023-02-01T01:37:23.393Z,100013.63
2023-02-01T01:39:53.307Z,100008.31
2023-02-01T01:42:28.904Z,100019.69
2023-02-01T01:45:08.535Z,100018.13
2023-02-01T01:47:50.664Z,100019.06
2023-02-01T01:51:12.195Z,100004.22
2023-02-01T01:54:03.185Z,100007.28
2023-02-01T01:56:50.169Z,100001.66
2023-02-01T01:59:54.857Z,100005.44
2023-02-01T02:02:22.363Z,100001.59
2023-02-01T02:04:53.286Z,100007.84
2023-02-01T02:08:03.466Z,99997.41
2023-02-01T02:11:04.479Z,99993.56
2023-02-01T02:13:44.466Z,100003.53
2023-02-01T02:16:29.766Z,99989.69
2023-02-01T02:19:06.529Z,99994.41
2023-02-01T02:23:03.811Z,100003.53
2023-02-01T02:26:30.462Z,99987.72
2023-02-01T02:30:10.580Z,99974.72
2023-02-01T02:33:23.847Z,99992.66
2023-02-01T02:36:20.390Z,99996.25
2023-02-01T02:39:44.921Z,99984.47
2023-02-01T02:43:19.062Z,99971.97
2023-02-01T02:46:52.033Z,99971.97
2023-02-01T02:54:14.750Z,99959.22
2023-02-01T02:57:02.611Z,99960.31
2023-02-01T02:59:52.309Z,99947.91
2023-02-01T03:03:07.638Z,99937.91
2023-02-01T03:05:46.744Z,99948.00
2023-02-01T03:08:30.378Z,99934.66
2023-02-01T03:11:16.971Z,99952.53
2023-02-01T03:14:07.319Z,99939.16
2023-02-01T03:17:16.717Z,99941.69
2023-02-01T03:19:54.565Z,99929.22
2023-02-01T03:22:44.400Z,99929.72
2023-02-01T03:25:35.341Z,99924.31
2023-02-01T03:28:12.333Z,99915.78
2023-02-01T03:30:46.948Z,99899.25
2023-02-01T03:33:27.836Z,99906.66
2023-02-01T03:36:32.315Z,99897.38
2023-02-01T03:39:35.869Z,99901.59
2023-02-01T03:45:54.644Z,99893.78
2023-02-01T03:48:38.316Z,99895.03
2023-02-01T03:51:13.514Z,99890.66
2023-02-01T03:53:50.381Z,99889.41
2023-02-01T03:56:27.789Z,99872.16
2023-02-01T03:59:06.327Z,99893.00
2023-02-01T04:01:46.738Z,99890.75
2023-02-01T04:04:23.715Z,99893.31
2023-02-01T04:06:55.984Z,99889.41
2023-02-01T04:09:28.289Z,99900.66
2023-02-01T04:11:55.129Z,99906.22
2023-02-01T04:14:24.961Z,99900.84
2023-02-01T04:16:51.871Z,99881.16
2023-02-01T04:19:24.695Z,99878.25
2023-02-01T04:21:51.651Z,99883.19
2023-02-01T04:24:27.789Z,99867.34
2023-02-01T04:26:54.521Z,99879.31
2023-02-01T04:29:27.528Z,99866.19
2023-02-01T04:31:57.225Z,99862.56
2023-02-01T04:34:25.795Z,99863.75
2023-02-01T04:36:58.789Z,99866.31
2023-02-01T04:39:28.282Z,99850.22
2023-02-01T04:41:55.208Z,99857.34
2023-02-01T04:44:25.641Z,99861.81
2023-02-01T04:46:52.889Z,99842.94
2023-02-01T04:49:27.822Z,99848.66
2023-02-01T04:51:54.708Z,99842.94
2023-02-01T04:54:24.672Z,99846.09
2023-02-01T04:56:54.647Z,99845.13
2023-02-01T04:59:26.912Z,99853.38
2023-02-01T05:01:53.673Z,99847.19
2023-02-01T05:04:29.499Z,99847.94
2023-02-01T05:06:56.297Z,99851.16
2023-02-01T05:09:31.450Z,99851.69
2023-02-01T05:15:09.925Z,99855.69
2023-02-01T05:20:20.629Z,99848.41
2023-02-01T05:22:53.435Z,99848.28
2023-02-01T05:25:23.628Z,99843.41
2023-02-01T05:27:57.921Z,99834.69
2023-02-01T05:30:30.089Z,99832.66
2023-02-01T05:33:05.924Z,99841.63
2023-02-01T05:35:35.350Z,99839.97
2023-02-01T05:38:02.004Z,99836.66
2023-02-01T05:40:28.894Z,99838.22
2023-02-01T05:42:58.742Z,99841.69
2023-02-01T05:45:28.526Z,99844.13
2023-02-01T05:47:55.266Z,99837.34
2023-02-01T05:50:29.225Z,99841.91
2023-02-01T05:52:58.278Z,99826.63
2023-02-01T05:55:28.188Z,99833.63
2023-02-01T05:57:57.537Z,99841.91
2023-02-01T06:00:27.839Z,99836.25
2023-02-01T08:12:19.144Z,99845.97
2023-02-01T09:29:18.981Z,99830.75
2023-02-01T09:31:57.342Z,99827.75
2023-02-01T09:35:03.539Z,99830.72
2023-02-01T09:37:31.298Z,99836.31
2023-02-01T09:40:00.619Z,99834.22
2023-02-01T09:43:14.035Z,99833.94
2023-02-01T09:45:59.344Z,99856.47
2023-02-01T09:48:54.506Z,99840.13
2023-02-01T09:51:32.354Z,99853.22
2023-02-01T09:54:20.733Z,99849.44
2023-02-01T09:57:09.419Z,99836.03
2023-02-01T10:00:19.295Z,99827.47
2023-02-01T10:02:46.816Z,99827.34
2023-02-01T10:05:58.485Z,99827.91
2023-02-01T10:09:17.379Z,99819.56
2023-02-01T10:13:00.364Z,99831.84
2023-02-01T10:16:30.596Z,99840.16
2023-02-01T10:19:54.282Z,99831.97
2023-02-01T10:23:15.929Z,99827.31
2023-02-01T10:26:03.468Z,99820.69
2023-02-01T10:28:52.798Z,99815.34
2023-02-01T10:31:33.027Z,99810.03
2023-02-01T11:55:53.871Z,99711.63
2023-02-01T11:59:17.589Z,99689.91
2023-02-01T12:02:36.960Z,99697.91
2023-02-01T12:05:26.120Z,99691.97
2023-02-01T12:08:28.373Z,99681.44
2023-02-01T12:11:24.284Z,99685.22
2023-02-01T12:14:35.721Z,99685.59
2023-02-01T12:17:45.451Z,99708.69
2023-02-01T12:21:06.135Z,99698.44
2023-02-01T12:24:23.468Z,99714.47
2023-02-01T12:27:36.519Z,99715.56
2023-02-01T12:30:46.823Z,99713.13
2023-02-01T12:34:37.827Z,99707.06
2023-02-01T12:38:17.698Z,99702.97
2023-02-01T12:41:50.583Z,99700.00
2023-02-01T12:46:02.603Z,99694.81
2023-02-01T12:48:58.289Z,99693.00
2023-02-01T12:52:14.941Z,99687.06
2023-02-01T12:55:25.506Z,99691.88
2023-02-01T12:58:13.957Z,99706.34
2023-02-01T13:01:13.465Z,99705.22
2023-02-01T13:04:22.323Z,99715.25
2023-02-01T13:07:05.675Z,99701.50
2023-02-01T13:10:00.977Z,99698.44
2023-02-01T13:12:50.230Z,99706.16
2023-02-01T13:15:26.796Z,99716.72
2023-02-01T13:17:59.850Z,99703.22
2023-02-01T13:20:45.209Z,99697.44
2023-02-01T13:23:55.169Z,99686.19
2023-02-01T13:26:22.080Z,99710.66
2023-02-01T13:29:12.107Z,99746.81
2023-02-01T13:32:11.841Z,99751.63
2023-02-01T13:35:46.720Z,99760.53
2023-02-01T13:39:14.313Z,99739.47
2023-02-01T13:42:17.052Z,99701.28
2023-02-01T13:45:18.829Z,99703.59
2023-02-01T13:48:27.969Z,99700.41
2023-02-01T13:51:02.894Z,99704.63
2023-02-01T13:53:51.518Z,99699.63
2023-02-01T13:56:56.683Z,99692.06
2023-02-01T13:59:44.921Z,99700.56
2023-02-01T14:03:11.107Z,99704.47
2023-02-01T14:05:53.265Z,99698.44
2023-02-01T14:09:15.071Z,99690.63
2023-02-01T14:12:02.487Z,99695.78
2023-02-01T14:14:34.672Z,99695.94
2023-02-01T14:40:26.348Z,99704.00
2023-02-01T14:43:09.912Z,99704.63
2023-02-01T14:45:56.545Z,99710.31
2023-02-01T14:49:06.986Z,99721.84
2023-02-01T14:51:34.173Z,99720.28
2023-02-01T14:54:04.335Z,99713.09
2023-02-01T15:02:58.426Z,99743.41
2023-02-01T15:08:34.878Z,99740.53
2023-02-01T15:11:18.691Z,99742.53
2023-02-01T15:14:01.638Z,99746.69
2023-02-01T15:16:28.713Z,99748.25
2023-02-01T15:19:15.681Z,99760.19
2023-02-01T15:21:57.703Z,99750.47
2023-02-01T15:27:12.796Z,99750.06
2023-02-01T15:29:59.220Z,99750.06
2023-02-01T15:32:43.949Z,99757.38
2023-02-01T15:35:53.431Z,99764.13
2023-02-01T15:38:25.985Z,99764.44
2023-02-01T15:41:21.684Z,99767.13
2023-02-01T15:43:58.509Z,99768.94
2023-02-01T15:47:08.800Z,99758.38
2023-02-01T15:50:07.304Z,99753.22
2023-02-01T15:53:00.537Z,99740.38
2023-02-01T15:55:53.214Z,99757.25
2023-02-01T15:58:30.479Z,99752.31
2023-02-01T16:01:17.430Z,99753.97
2023-02-01T16:04:26.803Z,99747.25
2023-02-01T16:07:02.729Z,99752.97
2023-02-01T16:10:28.165Z,99753.06
2023-02-01T16:13:01.298Z,99750.03
2023-02-01T16:15:30.736Z,99756.72
2023-02-01T16:18:01.835Z,99760.25
2023-02-01T16:20:28.718Z,99771.44
2023-02-01T16:22:58.316Z,99764.66
2023-02-01T16:25:32.341Z,99762.56
2023-02-01T16:27:59.072Z,99768.13
2023-02-01T16:30:26.517Z,99768.13
2023-02-01T16:32:59.802Z,99775.25
2023-02-01T16:35:55.176Z,99787.16
2023-02-01T16:38:30.306Z,99810.16
2023-02-01T16:41:02.530Z,99805.59
2023-02-01T16:43:29.609Z,99804.88
2023-02-01T16:46:22.203Z,99793.97
2023-02-01T16:49:23.393Z,99801.44
2023-02-01T16:52:07.423Z,99802.81
2023-02-01T16:55:04.973Z,99790.38
2023-02-01T16:57:33.642Z,99790.53
2023-02-01T17:00:14.633Z,99791.69
2023-02-01T17:03:16.494Z,99776.16
2023-02-01T17:09:33.907Z,99772.63
2023-02-01T17:12:00.601Z,99778.34
2023-02-01T17:14:38.474Z,99785.28
2023-02-01T17:17:06.120Z,99797.97
2023-02-01T17:19:55.364Z,99784.13
2023-02-01T17:22:22.243Z,99781.19
2023-02-01T17:24:58.429Z,99780.06
2023-02-01T17:27:34.036Z,99778.69
2023-02-01T17:30:07.557Z,99784.06
2023-02-01T17:32:34.414Z,99781.78
2023-02-01T17:35:03.726Z,99797.50
2023-02-01T17:40:29.969Z,99794.50
2023-02-01T17:42:59.703Z,99799.97
2023-02-01T17:46:04.003Z,99786.13
2023-02-01T17:48:30.901Z,99777.03
2023-02-01T17:51:04.753Z,99779.22
2023-02-01T17:54:15.390Z,99793.91
2023-02-01T17:56:56.015Z,99786.72
2023-02-01T17:59:22.679Z,99774.88
2023-02-01T18:02:03.767Z,99770.50
2023-02-01T18:04:30.472Z,99768.34
2023-02-01T18:07:01.537Z,99774.75
2023-02-01T18:09:30.810Z,99763.66
2023-02-01T18:11:58.640Z,99768.00
2023-02-01T18:14:27.766Z,99753.34
2023-02-01T18:16:57.451Z,99768.25
2023-02-01T18:19:32.727Z,99774.38
2023-02-01T18:22:06.244Z,99765.38
2023-02-01T18:24:37.510Z,99757.38
2023-02-01T18:27:07.491Z,99753.84
2023-02-01T19:31:08.952Z,99739.81
2023-02-01T19:56:01.671Z,99746.44
2023-02-01T20:28:25.356Z,99754.47
2023-02-01T20:30:52.140Z,99752.25
2023-02-01T20:33:21.546Z,99756.63
2023-02-01T20:35:52.610Z,99756.63
2023-02-01T20:38:23.444Z,99758.16
2023-02-01T20:40:57.479Z,99743.69
2023-02-01T20:43:27.041Z,99737.50
2023-02-01T20:45:56.937Z,99756.22
2023-02-01T20:48:23.679Z,99753.84
2023-02-01T20:50:59.098Z,99760.88
2023-02-01T20:53:32.739Z,99741.91
2023-02-01T20:56:07.174Z,99786.19
2023-02-01T20:58:34.474Z,99761.47
2023-02-01T21:01:01.615Z,99767.81
2023-02-01T21:03:29.444Z,99752.03
2023-02-01T21:06:01.645Z,99752.59
2023-02-01T21:08:31.722Z,99756.53
2023-02-01T21:11:13.635Z,99765.84
2023-02-01T21:14:03.539Z,99752.72
2023-02-01T21:16:30.297Z,99773.31
2023-02-01T21:19:02.896Z,99769.06
2023-02-01T21:21:36.566Z,99777.22
2023-02-01T21:24:06.261Z,99761.59
2023-02-01T21:29:32.052Z,99755.84
2023-02-01T21:32:02.303Z,99782.28
2023-02-01T21:34:30.528Z,99772.88
2023-02-01T21:37:00.130Z,99772.28
2023-02-01T21:39:30.308Z,99787.63
2023-02-01T21:42:14.847Z,99780.75
2023-02-01T21:45:01.769Z,99796.22
2023-02-01T21:47:31.167Z,99786.38
2023-02-01T21:50:18.005Z,99809.16
2023-02-01T21:52:46.169Z,99793.13
2023-02-01T21:55:14.786Z,99812.84
2023-02-01T21:57:45.394Z,99816.91
2023-02-01T22:00:14.182Z,99820.13
2023-02-01T22:05:33.158Z,99822.22
2023-02-01T22:07:59.805Z,99822.66
2023-02-01T22:10:26.627Z,99827.72
2023-02-01T22:12:53.495Z,99839.41
2023-02-01T22:15:20.261Z,99835.06
2023-02-01T22:17:53.237Z,99851.09
2023-02-01T22:20:20.008Z,99854.91
2023-02-01T22:22:58.068Z,99862.78
2023-02-01T22:25:31.374Z,99857.28
2023-02-01T22:28:31.664Z,99859.28
2023-02-01T22:30:45.085Z,99883.22
2023-02-01T22:33:13.165Z,99883.06
2023-02-01T22:35:47.150Z,99875.47
2023-02-01T22:38:13.995Z,99873.66
2023-02-01T22:40:44.391Z,99893.78
2023-02-01T22:43:12.060Z,99897.84
2023-02-01T22:45:39.019Z,99903.66
2023-02-01T22:48:11.355Z,99907.72
2023-02-01T22:50:39.111Z,99891.78
2023-02-01T22:53:07.312Z,99898.00
2023-02-01T22:55:36.410Z,99912.66
2023-02-01T22:58:06.181Z,99918.53
2023-02-01T23:00:32.815Z,99918.41
2023-02-01T23:03:01.325Z,99930.81
2023-02-01T23:05:31.112Z,99921.38
2023-02-01T23:08:01.468Z,99950.38
2023-02-01T23:10:28.507Z,99936.31
2023-02-01T23:12:58.417Z,99956.56
2023-02-01T23:15:25.458Z,99965.31
2023-02-01T23:17:58.945Z,99957.44
2023-02-01T23:20:29.388Z,99971.09
2023-02-01T23:22:59.011Z,99979.09
2023-02-01T23:25:26.108Z,99984.63
2023-02-01T23:27:59.319Z,99978.09
2023-02-01T23:30:26.036Z,99989.06
2023-02-01T23:33:01.945Z,99982.59
2023-02-01T23:35:36.058Z,100003.16
2023-02-01T23:38:02.912Z,99990.63
2023-02-01T23:40:29.790Z,100025.94
2023-02-01T23:43:20.614Z,100013.03
2023-02-01T23:45:59.954Z,100021.63
2023-02-01T23:48:31.532Z,100030.84
2023-02-01T23:51:01.034Z,100040.28
2023-02-01T23:53:30.498Z,100048.84
2023-02-01T23:55:58.023Z,100056.16
2023-02-01T23:58:30.396Z,100066.94
